TimeEST,TemperatureF,Dew PointF,Humidity,Sea Level PressureIn,VisibilityMPH,Wind Direction,Wind SpeedMPH,Gust SpeedMPH,PrecipitationIn,Events,Conditions,WindDirDegrees,DateUTC
12:53 AM,37.9,27.0,65,30.14,10.0,NNW,4.6,-,N/A,,Clear,340,2013-03-07 05:53:00
1:53 AM,37.0,27.0,67,30.15,10.0,NW,3.5,-,N/A,,Clear,310,2013-03-07 06:53:00
2:53 AM,35.1,27.0,72,30.16,10.0,NW,4.6,-,N/A,,Clear,310,2013-03-07 07:53:00
3:53 AM,34.0,26.1,73,30.16,10.0,Calm,Calm,-,N/A,,Clear,0,2013-03-07 08:53:00
4:53 AM,33.1,26.1,75,30.17,10.0,NW,3.5,-,N/A,,Clear,310,2013-03-07 09:53:00
5:53 AM,32.0,26.1,79,30.20,10.0,NW,3.5,-,N/A,,Clear,320,2013-03-07 10:53:00
6:53 AM,32.0,26.1,79,30.22,10.0,NNW,3.5,-,N/A,,Clear,330,2013-03-07 11:53:00
7:53 AM,37.0,27.0,67,30.24,10.0,North,6.9,-,N/A,,Clear,10,2013-03-07 12:53:00
8:53 AM,43.0,27.0,53,30.25,10.0,NNE,9.2,-,N/A,,Clear,20,2013-03-07 13:53:00
9:53 AM,46.9,27.0,46,30.24,10.0,NNE,10.4,-,N/A,,Clear,20,2013-03-07 14:53:00
10:53 AM,50.0,27.0,41,30.23,10.0,North,5.8,-,N/A,,Clear,360,2013-03-07 15:53:00
11:53 AM,51.1,27.0,39,30.21,10.0,Calm,Calm,-,N/A,,Clear,0,2013-03-07 16:53:00
12:53 PM,54.0,27.0,35,30.19,10.0,Calm,Calm,-,N/A,,Clear,0,2013-03-07 17:53:00
1:53 PM,57.0,27.0,32,30.15,10.0,Variable,5.8,-,N/A,,Clear,0,2013-03-07 18:53:00
2:53 PM,57.9,28.0,32,30.14,10.0,WNW,10.4,-,N/A,,Clear,300,2013-03-07 19:53:00
3:53 PM,59.0,28.0,31,30.13,10.0,West,9.2,-,N/A,,Clear,280,2013-03-07 20:53:00
4:53 PM,60.1,27.0,28,30.13,10.0,NW,8.1,-,N/A,,Clear,320,2013-03-07 21:53:00
5:53 PM,59.0,27.0,29,30.14,10.0,WNW,6.9,-,N/A,,Clear,300,2013-03-07 22:53:00
6:53 PM,55.9,30.0,37,30.17,10.0,Calm,Calm,-,N/A,,Clear,0,2013-03-07 23:53:00
7:53 PM,48.9,30.9,50,30.19,10.0,Calm,Calm,-,N/A,,Clear,0,2013-03-08 00:53:00
8:53 PM,44.1,33.1,65,30.19,10.0,Calm,Calm,-,N/A,,Clear,0,2013-03-08 01:53:00
9:53 PM,43.0,33.1,68,30.21,10.0,Calm,Calm,-,N/A,,Clear,0,2013-03-08 02:53:00
10:53 PM,39.9,34.0,79,30.22,10.0,Calm,Calm,-,N/A,,Clear,0,2013-03-08 03:53:00
11:53 PM,43.0,32.0,65,30.22,10.0,NE,8.1,-,N/A,,Clear,40,2013-03-08 04:53:00